sensor_id;sensor_type;location;lat;lon;timestamp;P1;durP1;ratioP1;P2;durP2;ratioP2
10479;SDS011;12789;42.610;23.040;2023-04-01T00:05:39;65.80;;;30.53;;
10479;SDS011;12789;42.610;23.040;2023-04-01T00:08:26;68.70;;;29.57;;
10479;SDS011;12789;42.610;23.040;2023-04-01T00:11:20;60.23;;;28.60;;
10479;SDS011;12789;42.610;23.040;2023-04-01T00:17:47;57.97;;;28.13;;
10479;SDS011;12789;42.610;23.040;2023-04-01T00:21:06;37.33;;;17.20;;
10479;SDS011;12789;42.610;23.040;2023-04-01T02:21:19;4.27;;;2.13;;
10479;SDS011;12789;42.610;23.040;2023-04-01T02:27:48;3.97;;;2.27;;
10479;SDS011;12789;42.610;23.040;2023-04-01T02:31:22;3.40;;;2.00;;
10479;SDS011;12789;42.610;23.040;2023-04-01T02:53:07;6.03;;;2.40;;
10479;SDS011;12789;42.610;23.040;2023-04-01T02:55:52;3.77;;;2.20;;
10479;SDS011;12789;42.610;23.040;2023-04-01T02:58:48;4.60;;;1.87;;
10479;SDS011;12789;42.610;23.040;2023-04-01T05:36:45;4.37;;;2.40;;
10479;SDS011;12789;42.610;23.040;2023-04-01T05:39:13;3.93;;;2.13;;
10479;SDS011;12789;42.610;23.040;2023-04-01T05:41:59;7.87;;;2.20;;
10479;SDS011;12789;42.610;23.040;2023-04-01T05:44:31;8.53;;;2.13;;
10479;SDS011;12789;42.610;23.040;2023-04-01T05:47:23;10.43;;;2.80;;
10479;SDS011;12789;42.610;23.040;2023-04-01T05:56:19;8.00;;;2.40;;
10479;SDS011;12789;42.610;23.040;2023-04-01T06:01:50;5.13;;;2.23;;
10479;SDS011;12789;42.610;23.040;2023-04-01T06:02:29;5.00;;;2.03;;
10479;SDS011;12789;42.610;23.040;2023-04-01T06:05:38;9.57;;;2.33;;
10479;SDS011;12789;42.610;23.040;2023-04-01T06:08:39;5.47;;;2.17;;
10479;SDS011;12789;42.610;23.040;2023-04-01T06:54:37;14.13;;;5.75;;
10479;SDS011;12789;42.610;23.040;2023-04-01T06:57:34;15.55;;;10.45;;
10479;SDS011;12789;42.610;23.040;2023-04-01T07:00:26;7.82;;;2.90;;
10479;SDS011;12789;42.610;23.040;2023-04-01T07:03:14;6.47;;;3.13;;
10479;SDS011;12789;42.610;23.040;2023-04-01T07:06:40;5.03;;;2.88;;
10479;SDS011;12789;42.610;23.040;2023-04-01T07:22:05;6.20;;;2.10;;
10479;SDS011;12789;42.610;23.040;2023-04-01T07:25:01;6.40;;;2.30;;
10479;SDS011;12789;42.610;23.040;2023-04-01T07:27:52;5.20;;;1.95;;
10479;SDS011;12789;42.610;23.040;2023-04-01T07:30:46;5.93;;;2.40;;
10479;SDS011;12789;42.610;23.040;2023-04-01T07:33:34;10.05;;;2.80;;
10479;SDS011;12789;42.610;23.040;2023-04-01T07:45:31;6.00;;;2.50;;
10479;SDS011;12789;42.610;23.040;2023-04-01T07:48:06;8.88;;;2.60;;
10479;SDS011;12789;42.610;23.040;2023-04-01T07:50:53;7.22;;;2.30;;
10479;SDS011;12789;42.610;23.040;2023-04-01T07:53:40;4.22;;;2.10;;
10479;SDS011;12789;42.610;23.040;2023-04-01T07:56:33;4.00;;;1.98;;
10479;SDS011;12789;42.610;23.040;2023-04-01T08:00:15;5.25;;;2.20;;
10479;SDS011;12789;42.610;23.040;2023-04-01T08:02:56;4.03;;;2.72;;
10479;SDS011;12789;42.610;23.040;2023-04-01T08:05:53;8.98;;;3.22;;
10479;SDS011;12789;42.610;23.040;2023-04-01T08:08:56;7.05;;;2.85;;
10479;SDS011;12789;42.610;23.040;2023-04-01T08:14:38;7.25;;;3.03;;
10479;SDS011;12789;42.610;23.040;2023-04-01T08:17:17;26.88;;;16.58;;
10479;SDS011;12789;42.610;23.040;2023-04-01T08:22:47;8.77;;;2.80;;
10479;SDS011;12789;42.610;23.040;2023-04-01T08:25:32;5.75;;;2.70;;
10479;SDS011;12789;42.610;23.040;2023-04-01T08:28:30;6.10;;;2.65;;
10479;SDS011;12789;42.610;23.040;2023-04-01T08:31:23;3.90;;;2.08;;
10479;SDS011;12789;42.610;23.040;2023-04-01T08:34:10;7.60;;;2.80;;
10479;SDS011;12789;42.610;23.040;2023-04-01T08:36:48;11.15;;;3.28;;
10479;SDS011;12789;42.610;23.040;2023-04-01T08:39:32;15.82;;;3.13;;
10479;SDS011;12789;42.610;23.040;2023-04-01T08:42:48;7.32;;;2.28;;
10479;SDS011;12789;42.610;23.040;2023-04-01T08:48:27;7.78;;;2.47;;
10479;SDS011;12789;42.610;23.040;2023-04-01T08:54:29;11.90;;;3.05;;
10479;SDS011;12789;42.610;23.040;2023-04-01T08:57:30;7.97;;;3.10;;
10479;SDS011;12789;42.610;23.040;2023-04-01T09:00:13;7.97;;;2.60;;
10479;SDS011;12789;42.610;23.040;2023-04-01T09:02:58;13.20;;;2.90;;
10479;SDS011;12789;42.610;23.040;2023-04-01T09:05:39;9.75;;;4.10;;
10479;SDS011;12789;42.610;23.040;2023-04-01T09:08:20;7.63;;;2.85;;
10479;SDS011;12789;42.610;23.040;2023-04-01T09:11:12;8.30;;;3.90;;
10479;SDS011;12789;42.610;23.040;2023-04-01T09:17:37;12.57;;;3.35;;
10479;SDS011;12789;42.610;23.040;2023-04-01T09:20:47;5.85;;;3.05;;
10479;SDS011;12789;42.610;23.040;2023-04-01T09:23:43;8.07;;;3.15;;
10479;SDS011;12789;42.610;23.040;2023-04-01T09:29:40;11.90;;;3.78;;
10479;SDS011;12789;42.610;23.040;2023-04-01T09:35:22;5.03;;;2.70;;
10479;SDS011;12789;42.610;23.040;2023-04-01T09:38:16;6.80;;;3.17;;
10479;SDS011;12789;42.610;23.040;2023-04-01T09:41:11;8.50;;;2.97;;
10479;SDS011;12789;42.610;23.040;2023-04-01T09:44:08;8.32;;;3.60;;
10479;SDS011;12789;42.610;23.040;2023-04-01T09:47:00;6.20;;;2.85;;
10479;SDS011;12789;42.610;23.040;2023-04-01T09:50:19;11.82;;;2.78;;
10479;SDS011;12789;42.610;23.040;2023-04-01T09:53:28;9.23;;;2.42;;
10479;SDS011;12789;42.610;23.040;2023-04-01T09:56:43;5.68;;;2.63;;
10479;SDS011;12789;42.610;23.040;2023-04-01T10:27:14;10.32;;;2.70;;
10479;SDS011;12789;42.610;23.040;2023-04-01T10:34:10;5.50;;;2.70;;
10479;SDS011;12789;42.610;23.040;2023-04-01T10:37:00;10.90;;;3.22;;
10479;SDS011;12789;42.610;23.040;2023-04-01T13:34:16;2.95;;;2.65;;
10479;SDS011;12789;42.610;23.040;2023-04-01T13:42:56;2.40;;;2.10;;
10479;SDS011;12789;42.610;23.040;2023-04-01T13:45:55;3.15;;;1.23;;
10479;SDS011;12789;42.610;23.040;2023-04-01T15:58:58;2.87;;;2.17;;
10479;SDS011;12789;42.610;23.040;2023-04-01T16:02:12;3.27;;;2.27;;
10479;SDS011;12789;42.610;23.040;2023-04-01T16:06:19;5.13;;;1.80;;
10479;SDS011;12789;42.610;23.040;2023-04-01T16:11:25;2.63;;;1.63;;
10479;SDS011;12789;42.610;23.040;2023-04-01T16:14:16;5.73;;;4.13;;
10479;SDS011;12789;42.610;23.040;2023-04-01T16:21:24;2.40;;;2.20;;
10479;SDS011;12789;42.610;23.040;2023-04-01T16:23:36;5.60;;;3.30;;
10479;SDS011;12789;42.610;23.040;2023-04-01T16:56:41;3.80;;;2.57;;
10479;SDS011;12789;42.610;23.040;2023-04-01T16:59:52;8.33;;;6.87;;
10479;SDS011;12789;42.610;23.040;2023-04-01T17:05:44;7.27;;;5.60;;
10479;SDS011;12789;42.610;23.040;2023-04-01T17:25:17;1.53;;;1.43;;
10479;SDS011;12789;42.610;23.040;2023-04-01T17:28:41;1.83;;;1.70;;
10479;SDS011;12789;42.610;23.040;2023-04-01T17:35:15;1.90;;;1.63;;
10479;SDS011;12789;42.610;23.040;2023-04-01T18:14:41;5.33;;;4.30;;
10479;SDS011;12789;42.610;23.040;2023-04-01T18:17:47;6.13;;;5.33;;
10479;SDS011;12789;42.610;23.040;2023-04-01T18:20:25;5.53;;;4.63;;
10479;SDS011;12789;42.610;23.040;2023-04-01T18:22:59;5.47;;;4.97;;
10479;SDS011;12789;42.610;23.040;2023-04-01T18:33:23;3.10;;;2.80;;
10479;SDS011;12789;42.610;23.040;2023-04-01T18:35:54;4.07;;;2.80;;
10479;SDS011;12789;42.610;23.040;2023-04-01T18:38:27;2.97;;;2.77;;
10479;SDS011;12789;42.610;23.040;2023-04-01T18:41:07;4.77;;;3.57;;
10479;SDS011;12789;42.610;23.040;2023-04-01T18:43:38;3.93;;;3.60;;
10479;SDS011;12789;42.610;23.040;2023-04-01T18:46:07;4.00;;;3.63;;
10479;SDS011;12789;42.610;23.040;2023-04-01T18:48:44;10.70;;;7.63;;
10479;SDS011;12789;42.610;23.040;2023-04-01T18:51:14;29.27;;;16.83;;
10479;SDS011;12789;42.610;23.040;2023-04-01T18:53:44;33.53;;;19.47;;
10479;SDS011;12789;42.610;23.040;2023-04-01T18:56:24;41.93;;;25.87;;
10479;SDS011;12789;42.610;23.040;2023-04-01T18:59:05;39.07;;;22.73;;
10479;SDS011;12789;42.610;23.040;2023-04-01T19:01:39;30.87;;;20.50;;
10479;SDS011;12789;42.610;23.040;2023-04-01T19:04:29;29.80;;;20.37;;
10479;SDS011;12789;42.610;23.040;2023-04-01T19:07:32;120.60;;;78.27;;
10479;SDS011;12789;42.610;23.040;2023-04-01T19:09:54;37.33;;;22.27;;
10479;SDS011;12789;42.610;23.040;2023-04-01T19:12:39;18.97;;;12.90;;
10479;SDS011;12789;42.610;23.040;2023-04-01T19:15:20;18.93;;;12.23;;
10479;SDS011;12789;42.610;23.040;2023-04-01T19:18:16;17.03;;;11.87;;
10479;SDS011;12789;42.610;23.040;2023-04-01T19:24:08;15.87;;;10.93;;
10479;SDS011;12789;42.610;23.040;2023-04-01T19:27:03;15.53;;;10.70;;
10479;SDS011;12789;42.610;23.040;2023-04-01T19:29:40;9.43;;;6.60;;
10479;SDS011;12789;42.610;23.040;2023-04-01T19:32:15;16.03;;;9.60;;
10479;SDS011;12789;42.610;23.040;2023-04-01T19:34:52;4.60;;;4.00;;
10479;SDS011;12789;42.610;23.040;2023-04-01T19:37:38;7.70;;;6.00;;
10479;SDS011;12789;42.610;23.040;2023-04-01T19:40:19;13.47;;;8.40;;
10479;SDS011;12789;42.610;23.040;2023-04-01T19:43:08;14.17;;;9.40;;
10479;SDS011;12789;42.610;23.040;2023-04-01T19:51:36;6.77;;;5.00;;
10479;SDS011;12789;42.610;23.040;2023-04-01T19:54:11;5.70;;;4.73;;
10479;SDS011;12789;42.610;23.040;2023-04-01T19:56:45;4.57;;;3.90;;
10479;SDS011;12789;42.610;23.040;2023-04-01T19:59:33;5.87;;;4.40;;
10479;SDS011;12789;42.610;23.040;2023-04-01T20:02:22;3.40;;;3.10;;
10479;SDS011;12789;42.610;23.040;2023-04-01T20:04:53;3.70;;;3.00;;
10479;SDS011;12789;42.610;23.040;2023-04-01T20:07:26;2.67;;;2.47;;
10479;SDS011;12789;42.610;23.040;2023-04-01T20:09:57;3.27;;;2.97;;
10479;SDS011;12789;42.610;23.040;2023-04-01T20:12:43;4.00;;;3.70;;
10479;SDS011;12789;42.610;23.040;2023-04-01T20:15:26;6.57;;;5.07;;
10479;SDS011;12789;42.610;23.040;2023-04-01T20:18:12;5.07;;;4.50;;
10479;SDS011;12789;42.610;23.040;2023-04-01T20:21:00;5.17;;;4.67;;
10479;SDS011;12789;42.610;23.040;2023-04-01T20:23:40;6.30;;;4.70;;
10479;SDS011;12789;42.610;23.040;2023-04-01T20:26:21;4.80;;;4.30;;
10479;SDS011;12789;42.610;23.040;2023-04-01T20:29:11;5.80;;;4.33;;
10479;SDS011;12789;42.610;23.040;2023-04-01T20:31:46;3.90;;;3.60;;
10479;SDS011;12789;42.610;23.040;2023-04-01T20:37:31;8.43;;;5.23;;
10479;SDS011;12789;42.610;23.040;2023-04-01T20:40:33;11.17;;;7.33;;
10479;SDS011;12789;42.610;23.040;2023-04-01T20:49:05;7.93;;;6.37;;
10479;SDS011;12789;42.610;23.040;2023-04-01T20:54:59;10.47;;;6.13;;
10479;SDS011;12789;42.610;23.040;2023-04-01T20:58:09;13.97;;;8.63;;
10479;SDS011;12789;42.610;23.040;2023-04-01T21:00:54;12.03;;;8.57;;
10479;SDS011;12789;42.610;23.040;2023-04-01T21:03:48;12.03;;;7.67;;
10479;SDS011;12789;42.610;23.040;2023-04-01T21:12:21;12.57;;;8.20;;
10479;SDS011;12789;42.610;23.040;2023-04-01T21:15:26;13.50;;;8.43;;
10479;SDS011;12789;42.610;23.040;2023-04-01T21:21:29;10.80;;;7.10;;
10479;SDS011;12789;42.610;23.040;2023-04-01T21:27:24;10.87;;;7.27;;
10479;SDS011;12789;42.610;23.040;2023-04-01T21:30:07;14.30;;;7.07;;
10479;SDS011;12789;42.610;23.040;2023-04-01T21:35:43;13.63;;;8.33;;
10479;SDS011;12789;42.610;23.040;2023-04-01T21:38:42;11.27;;;7.57;;
10479;SDS011;12789;42.610;23.040;2023-04-01T21:50:49;3.17;;;2.93;;
10479;SDS011;12789;42.610;23.040;2023-04-01T22:05:44;6.37;;;4.10;;
10479;SDS011;12789;42.610;23.040;2023-04-01T22:08:50;8.70;;;4.80;;
10479;SDS011;12789;42.610;23.040;2023-04-01T22:11:31;6.90;;;3.80;;
10479;SDS011;12789;42.610;23.040;2023-04-01T22:14:03;5.10;;;4.30;;
10479;SDS011;12789;42.610;23.040;2023-04-01T22:16:43;7.87;;;4.40;;
10479;SDS011;12789;42.610;23.040;2023-04-01T22:19:46;7.87;;;4.00;;
10479;SDS011;12789;42.610;23.040;2023-04-01T22:22:18;7.53;;;4.73;;
10479;SDS011;12789;42.610;23.040;2023-04-01T22:24:57;6.97;;;5.50;;
10479;SDS011;12789;42.610;23.040;2023-04-01T22:28:22;10.57;;;6.43;;
10479;SDS011;12789;42.610;23.040;2023-04-01T22:30:33;10.30;;;6.90;;
10479;SDS011;12789;42.610;23.040;2023-04-01T22:33:21;12.00;;;5.67;;
10479;SDS011;12789;42.610;23.040;2023-04-01T22:35:55;8.30;;;5.30;;
10479;SDS011;12789;42.610;23.040;2023-04-01T22:38:34;7.90;;;5.20;;
10479;SDS011;12789;42.610;23.040;2023-04-01T22:41:12;9.00;;;5.63;;
10479;SDS011;12789;42.610;23.040;2023-04-01T22:43:54;9.00;;;5.50;;
10479;SDS011;12789;42.610;23.040;2023-04-01T22:46:38;7.17;;;4.90;;
10479;SDS011;12789;42.610;23.040;2023-04-01T22:49:14;13.33;;;5.93;;
10479;SDS011;12789;42.610;23.040;2023-04-01T22:52:05;9.70;;;5.70;;
10479;SDS011;12789;42.610;23.040;2023-04-01T22:54:45;12.30;;;6.20;;
10479;SDS011;12789;42.610;23.040;2023-04-01T23:00:14;12.17;;;7.20;;
10479;SDS011;12789;42.610;23.040;2023-04-01T23:03:04;14.23;;;7.23;;
10479;SDS011;12789;42.610;23.040;2023-04-01T23:05:34;20.30;;;10.07;;
10479;SDS011;12789;42.610;23.040;2023-04-01T23:10:58;28.27;;;13.83;;
10479;SDS011;12789;42.610;23.040;2023-04-01T23:13:34;31.93;;;14.17;;
10479;SDS011;12789;42.610;23.040;2023-04-01T23:16:15;32.87;;;15.13;;
10479;SDS011;12789;42.610;23.040;2023-04-01T23:18:50;33.47;;;15.57;;
10479;SDS011;12789;42.610;23.040;2023-04-01T23:21:35;35.77;;;15.87;;
10479;SDS011;12789;42.610;23.040;2023-04-01T23:24:05;33.07;;;15.00;;
10479;SDS011;12789;42.610;23.040;2023-04-01T23:27:14;30.07;;;13.27;;
10479;SDS011;12789;42.610;23.040;2023-04-01T23:29:52;24.80;;;12.80;;
10479;SDS011;12789;42.610;23.040;2023-04-01T23:32:31;24.70;;;11.97;;
10479;SDS011;12789;42.610;23.040;2023-04-01T23:35:16;20.90;;;10.43;;
10479;SDS011;12789;42.610;23.040;2023-04-01T23:37:47;18.53;;;9.60;;
10479;SDS011;12789;42.610;23.040;2023-04-01T23:40:24;17.00;;;8.37;;
10479;SDS011;12789;42.610;23.040;2023-04-01T23:43:17;9.13;;;5.40;;
10479;SDS011;12789;42.610;23.040;2023-04-01T23:45:52;12.07;;;5.97;;
10479;SDS011;12789;42.610;23.040;2023-04-01T23:48:29;7.10;;;4.77;;
10479;SDS011;12789;42.610;23.040;2023-04-01T23:50:58;7.07;;;4.33;;
10479;SDS011;12789;42.610;23.040;2023-04-01T23:53:33;6.67;;;4.47;;
10479;SDS011;12789;42.610;23.040;2023-04-01T23:56:21;11.07;;;5.17;;
10479;SDS011;12789;42.610;23.040;2023-04-01T23:58:52;9.20;;;6.03;;
